Terminal Aerodrome Forecast
Issued by NWS

Home | Current Version | Previous Version | Text Only | Print | Product List | Glossary On
Versions: 1 2 3 4 5 6 7 8 9 10 11 12 13
000
FTUS45 KTFX 231100
TAFLWT
TAF
KLWT 231124Z 2312/2412 12004KT P6SM SCT120 BKN250
     FM231500 11004KT P6SM SKC
     FM232200 11008KT P6SM VCTS SCT080CB
     FM240000 14007KT P6SM SCT080 BKN150
      TEMPO 2400/2403 VRB30G40KT 5SM TSRAGS OVC030CB
     FM240400 14007KT P6SM SKC
     FM241000 21009KT P6SM SKC=

USA.gov is the U.S. government's official web portal to all federal, state and local government web resources and services.